createdAt,value
2022-10-13T00:01:13.971Z,6.28
2022-10-13T00:03:41.894Z,6.90
2022-10-13T00:06:10.401Z,6.35
2022-10-13T00:08:38.055Z,6.47
2022-10-13T00:11:12.677Z,6.63
2022-10-13T00:13:39.807Z,6.45
2022-10-13T00:16:07.009Z,6.10
2022-10-13T00:18:34.047Z,6.75
2022-10-13T00:21:01.126Z,6.65
2022-10-13T00:23:28.152Z,7.35
2022-10-13T00:25:55.255Z,6.50
2022-10-13T00:28:22.338Z,7.22
2022-10-13T00:30:49.423Z,7.13
2022-10-13T00:33:16.497Z,6.63
2022-10-13T00:35:44.361Z,6.63
2022-10-13T00:38:11.594Z,7.07
2022-10-13T00:40:46.107Z,7.57
2022-10-13T00:43:22.057Z,6.85
2022-10-13T00:45:52.682Z,6.15
2022-10-13T00:48:21.507Z,7.40
2022-10-13T00:50:49.157Z,6.93
2022-10-13T00:53:17.204Z,7.50
2022-10-13T00:55:45.541Z,7.00
2022-10-13T00:58:16.173Z,7.05
2022-10-13T01:00:45.863Z,6.65
2022-10-13T01:03:15.071Z,6.57
2022-10-13T01:05:42.416Z,6.68
2022-10-13T01:08:10.664Z,7.38
2022-10-13T01:10:46.044Z,7.13
2022-10-13T01:13:28.251Z,6.43
2022-10-13T01:15:59.649Z,7.22
2022-10-13T01:18:35.796Z,7.05
2022-10-13T01:21:09.013Z,7.15
2022-10-13T01:23:51.939Z,7.38
2022-10-13T01:26:18.981Z,6.85
2022-10-13T01:28:52.513Z,6.68
2022-10-13T01:31:22.708Z,7.30
2022-10-13T01:33:57.662Z,7.20
2022-10-13T01:36:39.031Z,6.82
2022-10-13T01:39:43.259Z,6.78
2022-10-13T01:42:16.666Z,6.90
2022-10-13T01:44:46.695Z,7.10
2022-10-13T01:47:15.086Z,6.63
2022-10-13T01:49:43.165Z,6.90
2022-10-13T01:52:13.696Z,7.57
2022-10-13T01:54:40.825Z,7.22
2022-10-13T01:57:27.523Z,7.18
2022-10-13T01:59:54.579Z,7.03
2022-10-13T02:02:32.027Z,7.70
2022-10-13T02:05:37.916Z,6.90
2022-10-13T02:08:05.024Z,7.80
2022-10-13T02:10:34.445Z,7.25
2022-10-13T02:13:02.856Z,7.05
2022-10-13T02:15:31.788Z,6.95
2022-10-13T02:18:01.784Z,7.25
2022-10-13T02:20:28.930Z,7.20
2022-10-13T02:22:58.113Z,7.00
2022-10-13T02:25:25.394Z,7.55
2022-10-13T02:27:52.956Z,7.75
2022-10-13T02:30:20.951Z,7.00
2022-10-13T02:32:48.024Z,6.65
2022-10-13T02:35:15.075Z,6.78
2022-10-13T02:37:42.196Z,6.93
2022-10-13T02:40:10.655Z,7.43
2022-10-13T02:42:37.742Z,7.10
2022-10-13T02:45:05.079Z,6.75
2022-10-13T02:47:32.126Z,6.75
2022-10-13T02:50:01.270Z,6.70
2022-10-13T02:52:28.323Z,6.68
2022-10-13T02:54:55.422Z,7.63
2022-10-13T02:57:22.552Z,6.95
2022-10-13T02:59:49.891Z,7.35
2022-10-13T03:02:17.428Z,7.32
2022-10-13T03:04:44.817Z,7.15
2022-10-13T03:07:12.110Z,7.50
2022-10-13T03:09:39.167Z,7.22
2022-10-13T03:12:06.368Z,8.20
2022-10-13T03:14:34.311Z,6.82
2022-10-13T03:17:01.559Z,7.47
2022-10-13T03:19:28.709Z,6.85
2022-10-13T03:21:55.753Z,6.85
2022-10-13T03:24:22.833Z,6.70
2022-10-13T03:26:49.978Z,6.47
2022-10-13T03:29:20.182Z,6.57
2022-10-13T03:31:47.289Z,7.75
2022-10-13T03:34:16.233Z,7.30
2022-10-13T03:36:43.327Z,7.80
2022-10-13T03:39:10.434Z,7.50
2022-10-13T03:41:37.486Z,6.72
2022-10-13T03:44:04.733Z,7.35
2022-10-13T03:46:31.807Z,7.28
2022-10-13T03:48:59.001Z,7.30
2022-10-13T03:51:26.370Z,7.47
2022-10-13T03:53:53.945Z,8.50
2022-10-13T03:56:22.603Z,7.25
2022-10-13T03:58:55.246Z,7.95
2022-10-13T04:01:23.351Z,7.32
2022-10-13T04:03:51.198Z,7.85
2022-10-13T04:06:18.243Z,8.07
2022-10-13T04:08:45.274Z,7.57
2022-10-13T04:11:13.702Z,7.47
2022-10-13T04:13:43.112Z,7.53
2022-10-13T04:16:13.489Z,7.65
2022-10-13T04:18:44.500Z,7.28
2022-10-13T04:21:15.466Z,7.95
2022-10-13T04:23:42.790Z,7.75
2022-10-13T04:26:15.526Z,8.00
2022-10-13T04:28:43.367Z,8.13
2022-10-13T04:31:10.463Z,7.75
2022-10-13T04:33:37.525Z,7.68
2022-10-13T04:36:05.454Z,8.02
2022-10-13T04:38:32.664Z,7.20
2022-10-13T04:40:59.721Z,8.23
2022-10-13T04:43:28.741Z,7.95
2022-10-13T04:46:06.706Z,7.88
2022-10-13T04:48:33.784Z,8.57
2022-10-13T04:51:04.672Z,8.20
2022-10-13T04:53:31.883Z,8.32
2022-10-13T04:56:03.151Z,7.97
2022-10-13T04:58:30.271Z,8.63
2022-10-13T05:01:01.831Z,7.93
2022-10-13T05:03:28.948Z,8.00
2022-10-13T05:05:56.006Z,7.97
2022-10-13T05:08:23.045Z,7.88
2022-10-13T05:11:02.549Z,7.82
2022-10-13T05:13:30.460Z,8.27
2022-10-13T05:15:57.643Z,8.65
2022-10-13T05:18:24.898Z,8.45
2022-10-13T05:20:51.981Z,8.38
2022-10-13T05:23:19.042Z,9.10
2022-10-13T05:25:46.076Z,8.02
2022-10-13T05:28:15.071Z,8.55
2022-10-13T05:30:42.200Z,8.43
2022-10-13T05:33:09.260Z,8.32
2022-10-13T05:35:36.314Z,8.98
2022-10-13T05:38:03.372Z,9.30
2022-10-13T05:40:30.412Z,8.88
2022-10-13T05:43:00.590Z,8.60
2022-10-13T05:45:28.638Z,8.52
2022-10-13T05:47:55.763Z,8.77
2022-10-13T05:50:22.937Z,7.72
2022-10-13T05:52:50.315Z,8.95
2022-10-13T05:55:18.385Z,8.15
2022-10-13T05:57:48.756Z,8.77
2022-10-13T06:00:17.227Z,8.48
2022-10-13T06:03:01.655Z,9.30
2022-10-13T06:05:28.890Z,8.38
2022-10-13T06:07:56.432Z,9.10
2022-10-13T06:10:23.812Z,8.50
2022-10-13T06:12:50.927Z,9.30
2022-10-13T06:15:18.310Z,9.25
2022-10-13T06:17:45.397Z,8.43
2022-10-13T06:20:12.719Z,8.80
2022-10-13T06:22:40.069Z,8.68
2022-10-13T06:25:07.481Z,8.63
2022-10-13T06:27:34.586Z,8.40
2022-10-13T06:30:01.645Z,9.13
2022-10-13T06:32:28.707Z,8.50
2022-10-13T06:34:55.754Z,8.35
2022-10-13T06:37:27.182Z,8.95
2022-10-13T06:39:54.768Z,8.80
2022-10-13T06:42:22.253Z,9.13
2022-10-13T06:45:08.263Z,8.80
2022-10-13T06:47:35.327Z,9.40
2022-10-13T06:50:02.355Z,8.90
2022-10-13T06:52:29.404Z,9.00
2022-10-13T06:54:56.470Z,8.57
2022-10-13T06:57:23.516Z,9.35
2022-10-13T06:59:52.767Z,8.98
2022-10-13T07:02:20.132Z,9.77
2022-10-13T07:04:47.748Z,9.25
2022-10-13T07:07:16.006Z,10.27
2022-10-13T07:09:43.823Z,9.15
2022-10-13T07:12:10.945Z,9.00
2022-10-13T07:14:39.301Z,8.85
2022-10-13T07:17:09.974Z,9.00
2022-10-13T07:19:37.017Z,9.77
2022-10-13T07:22:04.417Z,9.15
2022-10-13T07:24:31.553Z,9.00
2022-10-13T07:26:58.603Z,9.93
2022-10-13T07:29:25.674Z,9.93
2022-10-13T07:31:52.718Z,10.57
2022-10-13T07:34:19.763Z,9.75
2022-10-13T07:36:46.833Z,10.00
2022-10-13T07:39:13.958Z,9.90
2022-10-13T07:41:41.306Z,9.45
2022-10-13T07:44:08.407Z,10.00
2022-10-13T07:46:35.450Z,10.57
2022-10-13T07:49:02.570Z,10.68
2022-10-13T07:51:29.676Z,11.05
2022-10-13T07:53:56.844Z,11.20
2022-10-13T07:56:23.923Z,11.13
2022-10-13T07:58:50.974Z,11.82
2022-10-13T08:01:18.184Z,11.05
2022-10-13T08:03:48.961Z,11.05
2022-10-13T08:06:18.834Z,11.70
2022-10-13T08:08:45.991Z,12.32
2022-10-13T08:11:17.622Z,11.45
2022-10-13T08:13:48.965Z,11.18
2022-10-13T08:16:20.881Z,11.52
2022-10-13T08:18:48.289Z,10.50
2022-10-13T08:21:45.732Z,11.85
2022-10-13T08:24:04.994Z,10.20
2022-10-13T08:26:32.151Z,10.07
2022-10-13T08:31:46.622Z,11.23
2022-10-13T08:34:13.854Z,11.25
2022-10-13T08:36:40.983Z,10.55
2022-10-13T08:39:08.075Z,10.15
2022-10-13T08:41:39.742Z,10.38
2022-10-13T08:47:00.589Z,10.30
2022-10-13T08:49:27.678Z,9.90
2022-10-13T08:51:55.487Z,10.77
2022-10-13T08:54:24.137Z,10.35
2022-10-13T08:56:51.542Z,10.65
2022-10-13T08:59:19.039Z,11.38
2022-10-13T09:01:51.818Z,12.30
2022-10-13T09:04:36.395Z,12.25
2022-10-13T09:07:09.534Z,11.38
2022-10-13T09:09:37.189Z,10.77
2022-10-13T09:12:04.833Z,11.48
2022-10-13T09:14:33.954Z,11.38
2022-10-13T09:17:15.871Z,11.30
2022-10-13T09:19:43.074Z,11.15
2022-10-13T09:22:23.062Z,10.20
2022-10-13T09:25:08.735Z,10.85
2022-10-13T09:30:22.723Z,11.25
2022-10-13T09:32:49.831Z,10.90
2022-10-13T09:35:23.430Z,10.95
2022-10-13T09:38:13.106Z,10.82
2022-10-13T09:40:41.072Z,10.30
2022-10-13T09:43:27.925Z,10.23
2022-10-13T09:45:55.149Z,10.63
2022-10-13T09:48:25.966Z,10.07
2022-10-13T09:50:54.167Z,9.70
2022-10-13T09:53:35.405Z,8.55
2022-10-13T09:56:10.384Z,9.32
2022-10-13T09:58:41.872Z,7.90
2022-10-13T10:01:12.787Z,8.40
2022-10-13T10:03:39.960Z,7.72
2022-10-13T10:06:08.371Z,8.77
2022-10-13T10:09:05.350Z,6.40
2022-10-13T10:11:42.845Z,7.15
2022-10-13T10:14:17.914Z,7.25
2022-10-13T10:16:53.800Z,7.78
2022-10-13T10:19:33.788Z,7.38
2022-10-13T10:22:22.433Z,7.55
2022-10-13T10:25:27.989Z,7.30
2022-10-13T10:28:14.744Z,7.18
2022-10-13T10:30:51.277Z,7.82
2022-10-13T10:33:23.688Z,7.60
2022-10-13T10:36:16.648Z,6.50
2022-10-13T10:38:43.913Z,6.90
2022-10-13T10:41:10.952Z,7.18
2022-10-13T10:43:45.288Z,7.25
2022-10-13T10:46:18.042Z,6.82
2022-10-13T10:48:47.024Z,7.40
2022-10-13T10:51:15.135Z,6.78
2022-10-13T10:53:50.845Z,6.82
2022-10-13T10:56:28.224Z,6.53
2022-10-13T10:59:12.079Z,6.97
2022-10-13T11:01:42.207Z,6.60
2022-10-13T11:04:09.230Z,6.22
2022-10-13T11:06:37.926Z,5.47
2022-10-13T11:09:06.414Z,5.57
2022-10-13T11:11:37.865Z,6.13
2022-10-13T11:14:10.155Z,5.40
2022-10-13T11:17:09.025Z,5.55
2022-10-13T11:19:39.968Z,5.50
2022-10-13T11:22:07.021Z,5.82
2022-10-13T11:24:38.626Z,5.75
2022-10-13T11:27:11.715Z,6.32
2022-10-13T11:29:48.946Z,7.55
2022-10-13T11:32:27.948Z,7.13
2022-10-13T11:35:10.040Z,8.15
2022-10-13T11:38:05.672Z,7.47
2022-10-13T11:40:39.613Z,7.93
2022-10-13T11:43:40.729Z,8.43
2022-10-13T11:46:13.822Z,10.13
2022-10-13T11:49:22.284Z,9.75
2022-10-13T11:52:03.491Z,10.23
2022-10-13T11:54:42.235Z,10.32
2022-10-13T11:57:26.916Z,10.35
2022-10-13T11:59:55.779Z,11.13
2022-10-13T12:02:48.237Z,10.98
2022-10-13T12:05:29.223Z,11.77
2022-10-13T12:07:57.868Z,11.05
2022-10-13T12:10:32.522Z,11.35
2022-10-13T12:13:00.968Z,10.77
2022-10-13T12:15:33.919Z,11.85
2022-10-13T12:18:01.045Z,10.43
2022-10-13T12:20:31.224Z,9.90
2022-10-13T12:22:58.344Z,9.38
2022-10-13T12:25:27.288Z,10.05
2022-10-13T12:28:00.144Z,10.27
2022-10-13T12:30:29.478Z,9.95
2022-10-13T12:32:59.936Z,9.50
2022-10-13T12:35:31.004Z,9.02
2022-10-13T12:37:58.695Z,8.55
2022-10-13T12:40:25.874Z,10.25
2022-10-13T12:42:53.186Z,8.80
2022-10-13T12:45:23.044Z,8.90
2022-10-13T12:47:54.327Z,8.68
2022-10-13T12:50:21.580Z,9.65
2022-10-13T12:52:48.908Z,9.48
2022-10-13T12:55:17.883Z,9.38
2022-10-13T12:57:47.568Z,8.98
2022-10-13T13:00:23.253Z,9.60
2022-10-13T13:02:54.584Z,7.70
2022-10-13T13:05:34.048Z,8.57
2022-10-13T13:08:30.037Z,8.15
2022-10-13T13:10:57.867Z,7.18
2022-10-13T13:13:25.695Z,8.32
2022-10-13T13:15:53.077Z,8.20
2022-10-13T13:18:23.191Z,8.40
2022-10-13T13:20:50.225Z,8.57
2022-10-13T13:23:19.144Z,8.38
2022-10-13T13:26:00.057Z,8.63
2022-10-13T13:28:31.138Z,7.75
2022-10-13T13:31:02.270Z,7.97
2022-10-13T13:33:29.371Z,8.02
2022-10-13T13:35:58.991Z,8.18
2022-10-13T13:38:26.023Z,8.10
2022-10-13T13:40:53.138Z,8.02
2022-10-13T13:43:20.229Z,7.78
2022-10-13T13:45:47.299Z,8.30
2022-10-13T13:48:14.486Z,8.15
2022-10-13T13:50:41.544Z,7.53
2022-10-13T13:53:08.808Z,8.57
2022-10-13T13:55:35.731Z,8.60
2022-10-13T13:58:05.643Z,8.82
2022-10-13T14:00:32.679Z,8.02
2022-10-13T14:02:59.823Z,8.30
2022-10-13T14:05:26.929Z,8.32
2022-10-13T14:07:55.835Z,8.52
2022-10-13T14:10:22.952Z,8.40
2022-10-13T14:12:50.143Z,8.38
2022-10-13T14:15:17.369Z,8.55
2022-10-13T14:17:44.451Z,8.85
2022-10-13T14:20:11.787Z,8.40
2022-10-13T14:22:39.534Z,8.85
2022-10-13T14:25:07.578Z,9.80
2022-10-13T14:27:35.563Z,8.52
2022-10-13T14:30:07.329Z,8.38
2022-10-13T14:32:35.223Z,9.40
2022-10-13T14:35:02.269Z,9.13
2022-10-13T14:37:33.282Z,9.05
2022-10-13T14:40:00.836Z,8.65
2022-10-13T14:42:27.919Z,8.63
2022-10-13T14:44:55.000Z,8.85
2022-10-13T14:47:22.719Z,8.68
2022-10-13T14:49:50.011Z,8.75
2022-10-13T14:52:17.059Z,9.18
2022-10-13T14:54:45.182Z,9.38
2022-10-13T14:57:15.823Z,9.18
2022-10-13T14:59:43.364Z,8.95
2022-10-13T15:02:13.904Z,9.30
2022-10-13T15:04:51.053Z,9.00
2022-10-13T15:07:18.627Z,9.50
2022-10-13T15:09:52.875Z,8.60
2022-10-13T15:12:20.641Z,8.90
2022-10-13T15:14:48.043Z,8.93
2022-10-13T15:17:15.114Z,8.45
2022-10-13T15:19:42.153Z,9.13
2022-10-13T15:22:09.278Z,9.13
2022-10-13T15:24:36.332Z,9.38
2022-10-13T15:27:03.376Z,8.93
2022-10-13T15:29:32.298Z,9.25
2022-10-13T15:32:07.456Z,9.55
2022-10-13T15:34:34.584Z,9.57
2022-10-13T15:37:01.682Z,9.68
2022-10-13T15:39:28.732Z,9.40
2022-10-13T15:41:56.457Z,8.90
2022-10-13T15:44:26.531Z,9.52
2022-10-13T15:47:08.027Z,9.02
2022-10-13T15:49:39.205Z,8.95
2022-10-13T15:52:06.367Z,8.98
2022-10-13T15:54:35.625Z,8.70
2022-10-13T15:57:02.889Z,8.63
2022-10-13T15:59:29.967Z,9.55
2022-10-13T16:01:56.616Z,9.60
2022-10-13T16:04:23.687Z,9.68
2022-10-13T16:06:50.767Z,10.48
2022-10-13T16:09:17.836Z,10.02
2022-10-13T16:11:45.218Z,9.50
2022-10-13T16:14:12.357Z,9.63
2022-10-13T16:16:39.455Z,10.05
2022-10-13T16:19:06.669Z,9.10
2022-10-13T16:21:33.819Z,9.18
2022-10-13T16:24:05.095Z,9.23
2022-10-13T16:26:32.142Z,9.82
2022-10-13T16:28:59.334Z,8.93
2022-10-13T16:31:26.458Z,9.13
2022-10-13T16:33:53.527Z,9.88
2022-10-13T16:36:20.738Z,10.07
2022-10-13T16:38:50.907Z,9.68
2022-10-13T16:41:18.730Z,9.88
2022-10-13T16:43:46.364Z,10.00
2022-10-13T16:46:14.403Z,10.15
2022-10-13T16:48:42.224Z,9.98
2022-10-13T16:51:10.730Z,10.00
2022-10-13T16:53:38.636Z,9.98
2022-10-13T16:56:06.646Z,10.23
2022-10-13T16:58:33.775Z,11.02
2022-10-13T17:01:08.699Z,10.93
2022-10-13T17:03:36.633Z,10.85
2022-10-13T17:06:04.138Z,10.55
2022-10-13T17:08:31.646Z,10.95
2022-10-13T17:11:02.404Z,11.32
2022-10-13T17:13:30.540Z,10.55
2022-10-13T17:15:57.831Z,11.13
2022-10-13T17:18:25.823Z,11.82
2022-10-13T17:20:53.281Z,11.15
2022-10-13T17:23:20.759Z,12.15
2022-10-13T17:25:48.059Z,11.68
2022-10-13T17:28:15.421Z,12.52
2022-10-13T17:30:42.537Z,12.73
2022-10-13T17:33:12.141Z,12.48
2022-10-13T17:35:39.599Z,12.95
2022-10-13T17:38:07.009Z,13.57
2022-10-13T17:40:35.511Z,11.88
2022-10-13T17:43:02.847Z,10.75
2022-10-13T17:45:30.508Z,10.38
2022-10-13T17:47:58.818Z,10.10
2022-10-13T17:50:29.571Z,11.48
2022-10-13T17:52:56.658Z,13.25
2022-10-13T17:55:23.744Z,10.02
2022-10-13T17:57:50.800Z,10.88
2022-10-13T18:00:17.996Z,10.27
2022-10-13T18:02:45.847Z,9.48
2022-10-13T18:05:13.588Z,9.38
2022-10-13T18:07:40.621Z,10.15
2022-10-13T18:10:07.833Z,9.52
2022-10-13T18:12:34.955Z,8.80
2022-10-13T18:15:02.006Z,8.45
2022-10-13T18:17:29.122Z,9.15
2022-10-13T18:19:58.540Z,9.90
2022-10-13T18:22:25.659Z,12.55
2022-10-13T18:24:57.079Z,8.75
2022-10-13T18:27:24.394Z,8.65
2022-10-13T18:29:51.422Z,8.20
2022-10-13T18:32:21.908Z,9.00
2022-10-13T18:34:48.967Z,9.05
2022-10-13T18:37:16.273Z,8.30
2022-10-13T18:39:44.336Z,9.00
2022-10-13T18:42:11.425Z,8.93
2022-10-13T18:44:38.704Z,9.75
2022-10-13T18:47:06.856Z,9.02
2022-10-13T18:49:34.006Z,8.30
2022-10-13T18:52:01.709Z,7.80
2022-10-13T18:54:29.857Z,7.97
2022-10-13T18:56:57.189Z,7.13
2022-10-13T18:59:24.439Z,7.93
2022-10-13T19:01:51.759Z,7.70
2022-10-13T19:04:18.942Z,7.63
2022-10-13T19:06:46.360Z,6.97
2022-10-13T19:09:14.349Z,7.72
2022-10-13T19:11:41.687Z,7.55
2022-10-13T19:14:11.931Z,8.07
2022-10-13T19:16:40.302Z,8.02
2022-10-13T19:19:09.113Z,7.40
2022-10-13T19:21:36.639Z,7.00
2022-10-13T19:24:05.163Z,8.07
2022-10-13T19:26:33.495Z,7.47
2022-10-13T19:29:02.700Z,7.68
2022-10-13T19:31:30.650Z,7.55
2022-10-13T19:33:59.286Z,7.50
2022-10-13T19:36:33.650Z,8.27
2022-10-13T19:39:01.555Z,7.93
2022-10-13T19:41:29.854Z,8.00
2022-10-13T19:43:56.921Z,8.63
2022-10-13T19:46:24.653Z,9.05
2022-10-13T19:48:51.747Z,8.63
2022-10-13T19:51:19.048Z,9.30
2022-10-13T19:53:46.211Z,8.45
2022-10-13T19:56:23.975Z,8.35
2022-10-13T19:58:51.788Z,9.10
2022-10-13T20:01:19.809Z,8.63
2022-10-13T20:03:47.691Z,8.70
2022-10-13T20:06:15.134Z,9.60
2022-10-13T20:08:42.248Z,9.10
2022-10-13T20:11:11.220Z,10.00
2022-10-13T20:13:38.360Z,9.45
2022-10-13T20:16:09.151Z,9.77
2022-10-13T20:18:36.663Z,9.20
2022-10-13T20:21:05.117Z,9.60
2022-10-13T20:23:32.835Z,10.20
2022-10-13T20:26:03.828Z,10.02
2022-10-13T20:28:37.063Z,9.75
2022-10-13T20:31:10.270Z,9.75
2022-10-13T20:33:38.385Z,10.05
2022-10-13T20:36:07.393Z,10.50
2022-10-13T20:38:35.892Z,10.05
2022-10-13T20:41:14.777Z,10.57
2022-10-13T20:43:41.844Z,9.05
2022-10-13T20:46:09.165Z,9.07
2022-10-13T20:49:05.284Z,10.07
2022-10-13T20:51:24.581Z,8.82
2022-10-13T20:53:52.066Z,9.32
2022-10-13T20:56:24.574Z,9.13
2022-10-13T20:58:51.868Z,9.90
2022-10-13T21:01:19.943Z,10.52
2022-10-13T21:03:47.310Z,9.63
2022-10-13T21:06:14.962Z,9.75
2022-10-13T21:08:45.099Z,10.70
2022-10-13T21:11:12.910Z,11.55
2022-10-13T21:13:40.913Z,12.45
2022-10-13T21:16:15.999Z,12.13
2022-10-13T21:18:48.050Z,13.48
2022-10-13T21:21:16.175Z,13.65
2022-10-13T21:23:44.188Z,12.60
2022-10-13T21:26:16.279Z,12.20
2022-10-13T21:28:46.032Z,12.35
2022-10-13T21:31:14.610Z,14.13
2022-10-13T21:33:42.086Z,12.85
2022-10-13T21:36:10.115Z,13.52
2022-10-13T21:38:39.407Z,12.90
2022-10-13T21:41:07.603Z,13.18
2022-10-13T21:43:35.133Z,13.52
2022-10-13T21:46:18.071Z,13.05
2022-10-13T21:48:45.961Z,12.48
2022-10-13T21:51:18.153Z,12.52
2022-10-13T21:53:48.964Z,12.30
2022-10-13T21:56:16.532Z,13.52
2022-10-13T21:58:43.657Z,12.68
2022-10-13T22:01:10.780Z,12.18
2022-10-13T22:03:37.963Z,11.80
2022-10-13T22:06:12.248Z,12.45
2022-10-13T22:08:42.639Z,11.40
2022-10-13T22:11:14.984Z,12.02
2022-10-13T22:13:42.299Z,12.05
2022-10-13T22:16:14.383Z,11.98
2022-10-13T22:18:44.217Z,12.50
2022-10-13T22:21:17.469Z,11.27
2022-10-13T22:23:45.113Z,11.57
2022-10-13T22:26:12.645Z,11.38
2022-10-13T22:28:40.111Z,11.07
2022-10-13T22:31:08.418Z,11.02
2022-10-13T22:33:36.269Z,11.27
2022-10-13T22:36:10.511Z,10.85
2022-10-13T22:38:37.613Z,10.93
2022-10-13T22:41:07.799Z,9.98
2022-10-13T22:43:35.366Z,9.30
2022-10-13T22:46:12.255Z,10.05
2022-10-13T22:48:40.961Z,10.18
2022-10-13T22:51:12.178Z,12.10
2022-10-13T22:53:39.408Z,11.00
2022-10-13T22:56:10.566Z,9.98
2022-10-13T22:58:38.240Z,11.20
2022-10-13T23:01:09.619Z,9.45
2022-10-13T23:03:37.372Z,10.27
2022-10-13T23:06:04.975Z,10.52
2022-10-13T23:08:32.094Z,9.60
2022-10-13T23:10:59.214Z,9.82
2022-10-13T23:13:26.688Z,8.68
2022-10-13T23:16:07.463Z,9.00
2022-10-13T23:18:37.556Z,8.93
2022-10-13T23:21:08.407Z,8.85
2022-10-13T23:23:35.532Z,9.27
2022-10-13T23:26:03.540Z,9.20
2022-10-13T23:28:31.682Z,8.90
2022-10-13T23:31:02.803Z,9.70
2022-10-13T23:33:30.173Z,8.38
2022-10-13T23:35:58.062Z,8.07
2022-10-13T23:38:25.613Z,8.15
2022-10-13T23:40:52.759Z,8.05
2022-10-13T23:43:20.385Z,8.63
2022-10-13T23:45:54.129Z,8.15
2022-10-13T23:48:23.997Z,9.55
2022-10-13T23:50:51.125Z,8.13
2022-10-13T23:53:18.525Z,8.80
2022-10-13T23:55:45.627Z,8.77
2022-10-13T23:58:13.099Z,8.65
